createdAt,value
2018-05-27T00:00:09.846Z,8.10
2018-05-27T00:02:39.317Z,8.57
2018-05-27T00:05:08.749Z,8.53
2018-05-27T00:07:38.280Z,7.23
2018-05-27T00:10:07.718Z,7.07
2018-05-27T00:12:37.290Z,6.20
2018-05-27T00:15:06.726Z,6.90
2018-05-27T00:17:36.193Z,6.83
2018-05-27T00:20:05.787Z,6.80
2018-05-27T00:22:35.246Z,7.20
2018-05-27T00:25:04.686Z,6.93
2018-05-27T00:27:34.162Z,6.47
2018-05-27T00:30:03.610Z,7.03
2018-05-27T00:32:33.050Z,7.07
2018-05-27T00:35:02.526Z,6.60
2018-05-27T00:37:31.971Z,6.57
2018-05-27T00:40:01.437Z,7.00
2018-05-27T00:42:30.874Z,6.40
2018-05-27T00:45:00.330Z,6.33
2018-05-27T00:47:29.925Z,7.07
2018-05-27T00:49:59.589Z,6.20
2018-05-27T00:52:29.133Z,5.80
2018-05-27T00:54:58.965Z,7.20
2018-05-27T00:57:28.402Z,6.47
2018-05-27T00:59:57.978Z,6.20
2018-05-27T01:02:27.427Z,5.83
2018-05-27T01:04:56.894Z,6.00
2018-05-27T01:07:26.395Z,7.10
2018-05-27T01:09:55.850Z,6.83
2018-05-27T01:12:25.294Z,5.50
2018-05-27T01:14:54.758Z,6.50
2018-05-27T01:17:24.202Z,6.67
2018-05-27T01:19:53.666Z,7.43
2018-05-27T01:22:23.194Z,7.33
2018-05-27T01:24:52.822Z,6.63
2018-05-27T01:27:22.267Z,6.97
2018-05-27T01:29:51.939Z,6.40
2018-05-27T01:32:21.383Z,6.83
2018-05-27T01:34:50.846Z,6.90
2018-05-27T01:37:20.289Z,6.50
2018-05-27T01:39:49.752Z,5.50
2018-05-27T01:42:19.189Z,6.60
2018-05-27T01:44:48.698Z,6.00
2018-05-27T01:47:18.107Z,6.23
2018-05-27T01:49:47.566Z,6.53
2018-05-27T01:52:17.002Z,6.67
2018-05-27T01:54:46.469Z,6.67
2018-05-27T01:57:15.915Z,5.83
2018-05-27T01:59:45.373Z,5.73
2018-05-27T02:02:14.815Z,5.47
2018-05-27T02:04:44.277Z,6.23
2018-05-27T02:07:13.892Z,6.37
2018-05-27T02:09:43.359Z,5.57
2018-05-27T02:12:12.806Z,5.57
2018-05-27T02:14:42.261Z,5.37
2018-05-27T02:17:11.701Z,5.63
2018-05-27T02:19:41.172Z,6.80
2018-05-27T02:22:10.605Z,6.00
2018-05-27T02:24:40.063Z,5.53
2018-05-27T02:27:09.498Z,5.67
2018-05-27T02:29:38.962Z,6.40
2018-05-27T02:32:08.398Z,7.70
2018-05-27T02:34:37.866Z,6.70
2018-05-27T02:37:07.423Z,5.13
2018-05-27T02:39:36.881Z,5.10
2018-05-27T02:42:06.318Z,5.77
2018-05-27T02:44:35.863Z,5.00
2018-05-27T02:47:05.316Z,6.87
2018-05-27T02:49:34.868Z,5.80
2018-05-27T02:52:04.302Z,5.17
2018-05-27T02:54:33.762Z,5.00
2018-05-27T02:57:03.201Z,6.57
2018-05-27T02:59:32.683Z,6.00
2018-05-27T03:02:02.185Z,5.90
2018-05-27T03:04:31.654Z,5.47
2018-05-27T03:07:01.180Z,5.77
2018-05-27T03:09:30.802Z,5.07
2018-05-27T03:12:00.247Z,6.97
2018-05-27T03:14:29.710Z,5.13
2018-05-27T03:16:59.145Z,5.00
2018-05-27T03:19:28.591Z,5.00
2018-05-27T03:21:58.048Z,5.77
2018-05-27T03:24:27.487Z,5.80
2018-05-27T03:26:56.945Z,5.47
2018-05-27T03:29:26.409Z,5.50
2018-05-27T03:31:55.870Z,5.93
2018-05-27T03:34:25.315Z,5.07
2018-05-27T03:36:54.838Z,5.27
2018-05-27T03:39:24.447Z,5.30
2018-05-27T03:41:53.910Z,6.47
2018-05-27T03:44:23.353Z,5.03
2018-05-27T03:46:52.966Z,5.27
2018-05-27T03:49:22.407Z,4.70
2018-05-27T03:51:51.882Z,5.00
2018-05-27T03:54:21.323Z,5.83
2018-05-27T03:56:50.887Z,5.73
2018-05-27T03:59:20.322Z,5.17
2018-05-27T04:01:49.890Z,5.07
2018-05-27T04:04:25.458Z,4.90
2018-05-27T04:07:00.688Z,4.90
2018-05-27T04:09:30.118Z,5.60
2018-05-27T04:11:59.582Z,5.30
2018-05-27T04:14:29.022Z,5.43
2018-05-27T04:16:58.490Z,5.13
2018-05-27T04:19:27.929Z,5.77
2018-05-27T04:21:57.395Z,4.83
2018-05-27T04:24:26.830Z,5.47
2018-05-27T04:26:56.315Z,4.57
2018-05-27T04:29:25.762Z,5.60
2018-05-27T04:31:55.234Z,5.17
2018-05-27T04:34:24.670Z,5.03
2018-05-27T04:36:54.321Z,4.90
2018-05-27T04:39:23.761Z,5.10
2018-05-27T04:41:53.213Z,5.30
2018-05-27T04:44:22.650Z,5.93
2018-05-27T04:46:52.110Z,4.93
2018-05-27T04:49:21.549Z,5.57
2018-05-27T04:51:51.010Z,4.83
2018-05-27T04:54:20.459Z,5.00
2018-05-27T04:56:50.081Z,4.80
2018-05-27T04:59:19.517Z,4.90
2018-05-27T05:01:48.986Z,4.77
2018-05-27T05:04:18.429Z,5.30
2018-05-27T05:06:47.895Z,5.00
2018-05-27T05:09:17.462Z,4.73
2018-05-27T05:11:47.090Z,4.70
2018-05-27T05:14:16.530Z,4.57
2018-05-27T05:16:46.194Z,4.80
2018-05-27T05:19:15.641Z,4.77
2018-05-27T05:21:45.102Z,5.33
2018-05-27T05:24:14.593Z,4.97
2018-05-27T05:26:44.181Z,4.93
2018-05-27T05:29:13.697Z,5.20
2018-05-27T05:31:43.266Z,5.23
2018-05-27T05:34:12.709Z,5.33
2018-05-27T05:36:42.171Z,5.20
2018-05-27T05:39:11.746Z,4.80
2018-05-27T05:41:42.043Z,4.73
2018-05-27T05:44:11.478Z,5.70
2018-05-27T05:46:40.938Z,5.07
2018-05-27T05:49:10.562Z,4.97
2018-05-27T05:51:40.082Z,4.37
2018-05-27T05:54:09.689Z,4.30
2018-05-27T05:56:39.149Z,5.20
2018-05-27T05:59:08.595Z,4.57
2018-05-27T06:01:38.069Z,4.87
2018-05-27T06:04:07.505Z,5.10
2018-05-27T06:06:36.945Z,4.70
2018-05-27T06:09:06.414Z,4.97
2018-05-27T06:11:35.853Z,4.37
2018-05-27T06:14:05.322Z,4.47
2018-05-27T06:16:34.758Z,4.97
2018-05-27T06:19:04.453Z,4.33
2018-05-27T06:21:33.889Z,5.20
2018-05-27T06:24:03.449Z,4.43
2018-05-27T06:26:32.893Z,4.60
2018-05-27T06:29:02.654Z,4.33
2018-05-27T06:31:32.271Z,6.17
2018-05-27T06:34:01.826Z,4.50
2018-05-27T06:36:31.328Z,4.67
2018-05-27T06:39:00.789Z,5.17
2018-05-27T06:41:30.231Z,4.87
2018-05-27T06:43:59.695Z,5.23
2018-05-27T06:46:29.139Z,5.00
2018-05-27T06:48:58.602Z,4.77
2018-05-27T06:51:28.043Z,4.53
2018-05-27T06:53:57.810Z,4.73
2018-05-27T06:56:27.246Z,5.67
2018-05-27T06:58:56.719Z,4.37
2018-05-27T07:01:26.146Z,4.73
2018-05-27T07:03:55.609Z,4.40
2018-05-27T07:06:25.050Z,4.43
2018-05-27T07:08:54.640Z,4.67
2018-05-27T07:11:24.073Z,4.50
2018-05-27T07:13:53.547Z,4.60
2018-05-27T07:16:22.991Z,4.87
2018-05-27T07:18:52.466Z,4.87
2018-05-27T07:21:21.907Z,4.47
2018-05-27T07:23:51.370Z,4.37
2018-05-27T07:26:20.822Z,4.50
2018-05-27T07:28:50.290Z,5.07
2018-05-27T07:31:19.766Z,5.20
2018-05-27T07:33:49.223Z,4.40
2018-05-27T07:36:18.767Z,5.43
2018-05-27T07:38:48.236Z,4.40
2018-05-27T07:41:17.674Z,4.97
2018-05-27T07:43:47.194Z,4.50
2018-05-27T07:46:16.745Z,4.50
2018-05-27T07:48:46.197Z,4.83
2018-05-27T07:51:15.633Z,4.47
2018-05-27T07:53:45.114Z,4.50
2018-05-27T07:56:14.562Z,4.20
2018-05-27T07:58:44.181Z,4.87
2018-05-27T08:01:13.635Z,4.80
2018-05-27T08:03:43.089Z,4.83
2018-05-27T08:06:12.529Z,4.63
2018-05-27T08:08:42.142Z,4.60
2018-05-27T08:11:11.725Z,4.73
2018-05-27T08:13:41.194Z,4.80
2018-05-27T08:16:10.635Z,4.80
2018-05-27T08:18:40.202Z,4.57
2018-05-27T08:21:09.641Z,4.37
2018-05-27T08:23:39.106Z,4.80
2018-05-27T08:26:08.547Z,5.33
2018-05-27T08:28:38.001Z,4.70
2018-05-27T08:31:07.440Z,5.17
2018-05-27T08:33:36.901Z,3.97
2018-05-27T08:36:06.336Z,5.50
2018-05-27T08:38:35.889Z,4.47
2018-05-27T08:41:05.335Z,7.07
2018-05-27T08:43:34.797Z,5.20
2018-05-27T08:46:04.246Z,8.17
2018-05-27T08:48:33.743Z,4.33
2018-05-27T08:51:03.308Z,5.43
2018-05-27T08:53:32.766Z,4.90
2018-05-27T08:56:02.231Z,5.33
2018-05-27T08:58:31.721Z,4.57
2018-05-27T09:01:01.189Z,5.43
2018-05-27T09:03:30.942Z,5.40
2018-05-27T09:06:00.401Z,4.97
2018-05-27T09:08:29.934Z,5.20
2018-05-27T09:10:59.564Z,5.47
2018-05-27T09:13:29.007Z,4.70
2018-05-27T09:15:58.465Z,5.13
2018-05-27T09:18:28.532Z,5.27
2018-05-27T09:20:58.190Z,4.80
2018-05-27T09:23:27.626Z,5.07
2018-05-27T09:25:57.085Z,5.07
2018-05-27T09:28:26.637Z,5.00
2018-05-27T09:30:56.110Z,4.70
2018-05-27T09:33:25.690Z,4.87
2018-05-27T09:35:55.149Z,4.80
2018-05-27T09:38:24.597Z,5.00
2018-05-27T09:40:54.078Z,4.97
2018-05-27T09:43:23.506Z,5.07
2018-05-27T09:45:52.964Z,4.43
2018-05-27T09:48:22.590Z,5.17
2018-05-27T09:50:52.022Z,4.87
2018-05-27T09:53:21.466Z,4.97
2018-05-27T09:55:50.929Z,5.53
2018-05-27T09:58:20.545Z,5.37
2018-05-27T10:00:50.184Z,4.93
2018-05-27T10:03:19.754Z,5.43
2018-05-27T10:05:49.383Z,5.53
2018-05-27T10:08:18.822Z,4.90
2018-05-27T10:10:48.498Z,5.57
2018-05-27T10:13:17.933Z,5.37
2018-05-27T10:15:47.403Z,5.10
2018-05-27T10:18:16.838Z,4.97
2018-05-27T10:20:46.315Z,5.10
2018-05-27T10:23:15.749Z,5.27
2018-05-27T10:25:45.228Z,5.53
2018-05-27T10:28:14.667Z,4.97
2018-05-27T10:30:44.197Z,5.17
2018-05-27T10:33:13.658Z,5.23
2018-05-27T10:35:43.093Z,5.23
2018-05-27T10:38:12.558Z,5.53
2018-05-27T10:40:42.002Z,5.10
2018-05-27T10:43:11.466Z,5.13
2018-05-27T10:45:40.931Z,4.73
2018-05-27T10:48:10.549Z,5.73
2018-05-27T10:50:40.108Z,4.83
2018-05-27T10:53:09.569Z,5.07
2018-05-27T10:55:39.014Z,4.73
2018-05-27T10:58:08.478Z,4.80
2018-05-27T11:00:37.960Z,5.07
2018-05-27T11:03:07.590Z,4.93
2018-05-27T11:05:37.082Z,5.13
2018-05-27T11:08:06.688Z,5.33
2018-05-27T11:10:36.133Z,4.70
2018-05-27T11:13:05.709Z,5.27
2018-05-27T11:15:35.153Z,5.17
2018-05-27T11:18:04.622Z,5.07
2018-05-27T11:20:34.114Z,5.00
2018-05-27T11:23:03.725Z,4.50
2018-05-27T11:25:33.166Z,5.20
2018-05-27T11:28:02.741Z,5.27
2018-05-27T11:30:32.645Z,5.87
2018-05-27T11:33:02.118Z,4.73
2018-05-27T11:35:31.568Z,5.10
2018-05-27T11:38:01.166Z,4.70
2018-05-27T11:40:30.982Z,4.70
2018-05-27T11:43:00.427Z,8.63
2018-05-27T11:45:29.873Z,5.53
2018-05-27T11:47:59.326Z,4.73
2018-05-27T11:50:28.797Z,6.07
2018-05-27T11:52:58.240Z,4.87
2018-05-27T11:55:27.953Z,5.10
2018-05-27T11:57:57.358Z,5.00
2018-05-27T12:00:26.822Z,4.87
2018-05-27T12:02:56.522Z,4.67
2018-05-27T12:05:26.122Z,4.93
2018-05-27T12:07:55.565Z,4.60
2018-05-27T12:10:25.151Z,4.90
2018-05-27T12:12:54.602Z,4.90
2018-05-27T12:15:24.855Z,5.00
2018-05-27T12:17:54.310Z,4.50
2018-05-27T12:20:24.078Z,4.70
2018-05-27T12:22:53.698Z,8.87
2018-05-27T12:25:23.154Z,9.07
2018-05-27T12:27:52.600Z,5.63
2018-05-27T12:30:22.061Z,5.20
2018-05-27T12:32:51.502Z,6.37
2018-05-27T12:35:20.959Z,6.87
2018-05-27T12:37:50.394Z,5.83
2018-05-27T12:40:19.854Z,5.60
2018-05-27T12:42:49.317Z,5.43
2018-05-27T12:45:18.793Z,5.27
2018-05-27T12:47:48.229Z,5.33
2018-05-27T12:50:17.830Z,5.33
2018-05-27T12:52:47.295Z,6.60
2018-05-27T12:55:16.742Z,6.10
2018-05-27T12:57:46.198Z,6.07
2018-05-27T13:00:15.642Z,5.50
2018-05-27T13:02:45.256Z,6.30
2018-05-27T13:05:14.699Z,6.87
2018-05-27T13:07:44.263Z,6.10
2018-05-27T13:10:13.708Z,7.23
2018-05-27T13:12:43.381Z,7.23
2018-05-27T13:15:12.830Z,6.27
2018-05-27T13:17:42.377Z,5.90
2018-05-27T13:20:11.975Z,5.70
2018-05-27T13:22:41.498Z,6.27
2018-05-27T13:25:10.938Z,6.03
2018-05-27T13:27:40.398Z,6.03
2018-05-27T13:30:09.848Z,5.60
2018-05-27T13:32:39.310Z,5.97
2018-05-27T13:35:08.755Z,6.13
2018-05-27T13:37:38.209Z,5.47
2018-05-27T13:40:07.646Z,6.10
2018-05-27T13:42:37.106Z,5.60
2018-05-27T13:45:06.618Z,5.90
2018-05-27T13:47:36.102Z,5.80
2018-05-27T13:50:05.543Z,6.00
2018-05-27T13:52:35.037Z,6.07
2018-05-27T13:55:04.487Z,5.50
2018-05-27T13:57:33.966Z,5.67
2018-05-27T14:00:03.709Z,6.20
2018-05-27T14:02:33.145Z,6.00
2018-05-27T14:05:02.607Z,5.80
2018-05-27T14:07:32.065Z,6.33
2018-05-27T14:10:01.653Z,5.93
2018-05-27T14:12:31.482Z,5.77
2018-05-27T14:15:00.923Z,5.63
2018-05-27T14:17:30.382Z,5.73
2018-05-27T14:19:59.827Z,5.97
2018-05-27T14:22:29.302Z,5.90
2018-05-27T14:24:58.744Z,5.97
2018-05-27T14:27:28.386Z,5.70
2018-05-27T14:29:57.821Z,5.40
2018-05-27T14:32:27.285Z,5.57
2018-05-27T14:34:56.721Z,6.13
2018-05-27T14:37:26.162Z,5.70
2018-05-27T14:39:55.618Z,5.60
2018-05-27T14:42:25.063Z,5.73
2018-05-27T14:44:54.624Z,5.20
2018-05-27T14:47:24.054Z,5.50
2018-05-27T14:49:53.545Z,5.70
2018-05-27T14:52:23.052Z,5.50
2018-05-27T14:54:52.519Z,6.40
2018-05-27T14:57:22.109Z,6.43
2018-05-27T14:59:51.574Z,5.77
2018-05-27T15:02:21.019Z,5.30
2018-05-27T15:04:50.474Z,6.03
2018-05-27T15:07:19.918Z,5.83
2018-05-27T15:09:51.848Z,5.77
2018-05-27T15:12:21.261Z,6.00
2018-05-27T15:14:50.730Z,6.00
2018-05-27T15:17:20.353Z,6.07
2018-05-27T15:19:49.965Z,5.37
2018-05-27T15:22:19.401Z,5.50
2018-05-27T15:24:48.981Z,5.60
2018-05-27T15:27:18.557Z,6.03
2018-05-27T15:29:48.025Z,5.63
2018-05-27T15:32:17.524Z,5.50
2018-05-27T15:34:46.918Z,5.73
2018-05-27T15:37:16.395Z,5.83
2018-05-27T15:39:45.842Z,5.83
2018-05-27T15:42:15.281Z,5.70
2018-05-27T15:44:45.110Z,5.30
2018-05-27T15:47:14.545Z,5.47
2018-05-27T15:49:44.018Z,5.60
2018-05-27T15:52:13.468Z,5.37
2018-05-27T15:54:42.942Z,5.93
2018-05-27T15:57:12.380Z,5.57
2018-05-27T15:59:42.037Z,5.70
2018-05-27T16:02:11.479Z,5.60
2018-05-27T16:04:40.941Z,5.40
2018-05-27T16:07:10.377Z,5.30
2018-05-27T16:09:39.837Z,5.10
2018-05-27T16:12:09.283Z,5.43
2018-05-27T16:14:38.738Z,5.13
2018-05-27T16:17:08.477Z,5.40
2018-05-27T16:19:38.245Z,4.97
2018-05-27T16:22:07.695Z,5.20
2018-05-27T16:24:37.281Z,5.20
2018-05-27T16:27:06.727Z,5.43
2018-05-27T16:29:36.206Z,5.77
2018-05-27T16:32:05.805Z,5.63
2018-05-27T16:34:35.270Z,5.43
2018-05-27T16:37:04.714Z,5.50
2018-05-27T16:39:34.178Z,5.20
2018-05-27T16:42:03.627Z,5.30
2018-05-27T16:44:33.090Z,5.80
2018-05-27T16:47:02.533Z,5.23
2018-05-27T16:49:31.990Z,5.60
2018-05-27T16:52:01.641Z,5.47
2018-05-27T16:54:31.351Z,5.00
2018-05-27T16:57:00.789Z,4.80
2018-05-27T16:59:30.249Z,4.87
2018-05-27T17:01:59.686Z,5.30
2018-05-27T17:04:29.141Z,5.00
2018-05-27T17:06:58.585Z,5.50
2018-05-27T17:09:28.046Z,5.50
2018-05-27T17:11:57.588Z,5.50
2018-05-27T17:14:27.053Z,5.00
2018-05-27T17:16:56.894Z,5.30
2018-05-27T17:19:26.351Z,4.93
2018-05-27T17:21:55.896Z,5.20
2018-05-27T17:24:25.361Z,5.10
2018-05-27T17:26:54.793Z,5.33
2018-05-27T17:29:24.426Z,5.37
2018-05-27T17:31:54.036Z,5.70
2018-05-27T17:34:23.617Z,4.97
2018-05-27T17:36:53.074Z,4.90
2018-05-27T17:39:22.750Z,5.53
2018-05-27T17:41:52.353Z,4.77
2018-05-27T17:44:21.795Z,5.70
2018-05-27T17:46:51.262Z,5.60
2018-05-27T17:49:20.697Z,5.47
2018-05-27T17:51:50.166Z,5.07
2018-05-27T17:54:19.819Z,5.10
2018-05-27T17:56:49.246Z,5.20
2018-05-27T17:59:18.682Z,5.07
2018-05-27T18:01:48.141Z,4.93
2018-05-27T18:04:17.718Z,5.33
2018-05-27T18:06:47.202Z,5.07
2018-05-27T18:09:16.639Z,5.60
2018-05-27T18:11:46.103Z,5.57
2018-05-27T18:14:15.545Z,5.20
2018-05-27T18:16:45.010Z,4.70
2018-05-27T18:19:14.454Z,5.20
2018-05-27T18:21:43.929Z,5.40
2018-05-27T18:24:13.368Z,4.80
2018-05-27T18:26:42.834Z,5.47
2018-05-27T18:29:12.270Z,5.53
2018-05-27T18:31:46.235Z,5.17
2018-05-27T18:34:15.792Z,4.90
2018-05-27T18:36:45.250Z,5.50
2018-05-27T18:39:14.689Z,5.30
2018-05-27T18:41:44.158Z,5.33
2018-05-27T18:44:13.770Z,5.00
2018-05-27T18:46:43.233Z,4.93
2018-05-27T18:49:12.682Z,5.10
2018-05-27T18:51:42.177Z,5.07
2018-05-27T18:54:11.725Z,5.00
2018-05-27T18:56:41.191Z,5.07
2018-05-27T18:59:10.636Z,5.03
2018-05-27T19:01:40.102Z,5.43
2018-05-27T19:04:09.542Z,4.80
2018-05-27T19:06:39.114Z,5.37
2018-05-27T19:09:08.650Z,5.37
2018-05-27T19:11:38.114Z,4.97
2018-05-27T19:14:07.598Z,5.00
2018-05-27T19:16:37.057Z,5.00
2018-05-27T19:19:06.498Z,4.87
2018-05-27T19:21:35.965Z,5.00
2018-05-27T19:24:05.410Z,5.40
2018-05-27T19:26:34.869Z,4.73
2018-05-27T19:29:04.332Z,4.70
2018-05-27T19:31:33.799Z,4.70
2018-05-27T19:34:03.456Z,5.10
2018-05-27T19:36:32.918Z,5.10
2018-05-27T19:39:02.446Z,5.10
2018-05-27T19:41:32.279Z,4.57
2018-05-27T19:44:01.716Z,4.93
2018-05-27T19:46:31.285Z,5.03
2018-05-27T19:49:00.813Z,5.27
2018-05-27T19:51:30.266Z,5.03
2018-05-27T19:53:59.701Z,4.60
2018-05-27T19:56:29.166Z,4.87
2018-05-27T19:58:58.909Z,4.90
2018-05-27T20:01:28.378Z,4.87
2018-05-27T20:03:57.830Z,4.90
2018-05-27T20:06:27.294Z,4.83
2018-05-27T20:08:56.810Z,4.50
2018-05-27T20:11:26.276Z,4.57
2018-05-27T20:13:55.714Z,4.60
2018-05-27T20:16:25.190Z,5.00
2018-05-27T20:18:54.630Z,5.00
2018-05-27T20:21:24.065Z,4.87
2018-05-27T20:23:53.522Z,4.60
2018-05-27T20:26:23.362Z,4.70
2018-05-27T20:28:52.821Z,4.57
2018-05-27T20:31:22.269Z,4.90
2018-05-27T20:33:51.821Z,4.83
2018-05-27T20:36:21.258Z,5.10
2018-05-27T20:38:50.818Z,4.40
2018-05-27T20:41:20.264Z,4.87
2018-05-27T20:43:49.725Z,4.67
2018-05-27T20:46:19.298Z,4.77
2018-05-27T20:48:48.901Z,5.17
2018-05-27T20:51:18.347Z,4.70
2018-05-27T20:53:48.012Z,4.60
2018-05-27T20:56:17.441Z,4.80
2018-05-27T20:58:46.901Z,4.80
2018-05-27T21:01:16.409Z,5.03
2018-05-27T21:03:45.943Z,4.70
2018-05-27T21:06:15.377Z,4.10
2018-05-27T21:08:44.842Z,5.30
2018-05-27T21:11:14.475Z,4.93
2018-05-27T21:13:44.354Z,4.47
2018-05-27T21:16:13.793Z,4.83
2018-05-27T21:18:43.382Z,4.40
2018-05-27T21:21:12.821Z,4.47
2018-05-27T21:23:42.373Z,4.97
2018-05-27T21:26:11.801Z,5.10
2018-05-27T21:28:41.268Z,4.60
2018-05-27T21:31:10.787Z,5.00
2018-05-27T21:33:40.251Z,4.70
2018-05-27T21:36:09.689Z,4.80
2018-05-27T21:38:39.215Z,5.13
2018-05-27T21:41:08.659Z,4.70
2018-05-27T21:43:38.420Z,4.63
2018-05-27T21:46:07.906Z,4.60
2018-05-27T21:48:37.325Z,4.57
2018-05-27T21:51:06.766Z,5.07
2018-05-27T21:53:36.230Z,4.57
2018-05-27T21:56:05.669Z,4.60
2018-05-27T21:58:35.265Z,4.83
2018-05-27T22:01:04.702Z,4.53
2018-05-27T22:03:34.142Z,4.50
2018-05-27T22:06:03.597Z,4.57
2018-05-27T22:08:33.031Z,4.83
2018-05-27T22:11:02.494Z,4.53
2018-05-27T22:13:31.929Z,4.43
2018-05-27T22:16:01.478Z,5.30
2018-05-27T22:18:31.022Z,4.50
2018-05-27T22:21:00.481Z,4.57
2018-05-27T22:23:30.001Z,4.87
2018-05-27T22:25:59.615Z,4.40
2018-05-27T22:28:29.047Z,4.53
2018-05-27T22:30:58.510Z,4.93
2018-05-27T22:33:27.949Z,4.83
2018-05-27T22:35:57.406Z,4.50
2018-05-27T22:38:26.969Z,4.60
2018-05-27T22:40:56.438Z,4.77
2018-05-27T22:43:25.883Z,4.40
2018-05-27T22:45:55.346Z,5.10
2018-05-27T22:48:25.137Z,4.57
2018-05-27T22:50:54.597Z,4.63
2018-05-27T22:53:24.132Z,4.63
2018-05-27T22:55:53.763Z,4.67
2018-05-27T22:58:23.205Z,4.60
2018-05-27T23:00:52.666Z,4.90
2018-05-27T23:03:22.105Z,4.60
2018-05-27T23:05:51.561Z,5.30
2018-05-27T23:08:21.002Z,4.60
2018-05-27T23:10:50.473Z,4.63
2018-05-27T23:13:19.915Z,5.13
2018-05-27T23:15:49.354Z,4.40
2018-05-27T23:18:18.810Z,4.40
2018-05-27T23:20:48.278Z,4.43
2018-05-27T23:23:17.742Z,4.77
2018-05-27T23:25:47.405Z,4.57
2018-05-27T23:28:16.870Z,4.40
2018-05-27T23:30:46.314Z,4.80
2018-05-27T23:33:15.782Z,4.87
2018-05-27T23:35:45.233Z,4.60
2018-05-27T23:38:14.698Z,4.43
2018-05-27T23:40:44.285Z,4.70
2018-05-27T23:43:13.750Z,4.70
2018-05-27T23:45:43.501Z,4.33
2018-05-27T23:48:12.957Z,4.37
2018-05-27T23:50:42.393Z,4.60
2018-05-27T23:53:11.862Z,4.33
2018-05-27T23:55:41.297Z,4.50
2018-05-27T23:58:10.807Z,4.90
